Time,TemperatureF,DewpointF,PressureIn,WindDirection,WindDirectionDegrees,WindSpeedMPH,WindSpeedGustMPH,Humidity,HourlyPrecipIn,Conditions,Clouds,dailyrainin,SoftwareType,DateUTC
2013-05-19 00:11:00,49.0,40.0,-100.00,WSW,257,5.0,12.0,72,0.00,,,0.35,,2013-05-19 00:11:00,
2013-05-19 00:21:00,49.0,40.0,-100.00,WSW,257,5.0,12.0,72,0.00,,,0.35,,2013-05-19 00:21:00,
2013-05-19 00:31:00,49.0,40.0,-100.00,WSW,257,5.0,12.0,72,0.00,,,0.35,,2013-05-19 00:31:00,
2013-05-19 00:41:00,49.0,40.0,-100.00,WSW,257,5.0,12.0,72,0.00,,,0.35,,2013-05-19 00:41:00,
2013-05-19 00:51:00,46.0,39.0,-100.00,SW,221,11.0,19.0,75,0.00,,,0.35,,2013-05-19 00:51:00,
2013-05-19 01:21:00,46.0,39.0,-100.00,SW,221,11.0,19.0,75,0.00,,,0.35,,2013-05-19 01:21:00,
2013-05-19 01:32:00,46.0,39.0,-100.00,SW,221,11.0,19.0,75,0.00,,,0.35,,2013-05-19 01:32:00,
2013-05-19 01:42:00,46.0,39.0,-100.00,SW,221,11.0,19.0,75,0.00,,,0.35,,2013-05-19 01:42:00,
2013-05-19 01:51:00,45.0,37.0,-100.00,North,349,10.0,15.0,73,0.01,,,0.36,,2013-05-19 01:51:00,
2013-05-19 02:21:00,45.0,37.0,-100.00,North,349,10.0,15.0,73,0.01,,,0.36,,2013-05-19 02:21:00,
2013-05-19 02:32:00,45.0,37.0,-100.00,North,349,10.0,15.0,73,0.01,,,0.36,,2013-05-19 02:32:00,
2013-05-19 02:42:00,45.0,37.0,-100.00,North,349,10.0,15.0,73,0.01,,,0.36,,2013-05-19 02:42:00,
2013-05-19 02:51:00,43.0,39.0,-100.00,SSW,207,7.0,14.0,86,0.00,,,0.36,,2013-05-19 02:51:00,
2013-05-19 03:11:00,43.0,39.0,-100.00,SSW,207,7.0,14.0,86,0.00,,,0.36,,2013-05-19 03:11:00,
2013-05-19 03:21:00,43.0,39.0,-100.00,SSW,207,7.0,14.0,86,0.00,,,0.36,,2013-05-19 03:21:00,
2013-05-19 03:33:00,43.0,39.0,-100.00,SSW,207,7.0,14.0,86,0.00,,,0.36,,2013-05-19 03:33:00,
2013-05-19 03:42:00,43.0,39.0,-100.00,SSW,207,7.0,14.0,86,0.00,,,0.36,,2013-05-19 03:42:00,
2013-05-19 03:51:00,42.0,40.0,-100.00,WSW,239,6.0,10.0,91,0.00,,,0.36,,2013-05-19 03:51:00,
2013-05-19 04:12:00,42.0,40.0,-100.00,WSW,239,6.0,10.0,91,0.00,,,0.36,,2013-05-19 04:12:00,
2013-05-19 04:23:00,42.0,40.0,-100.00,WSW,239,6.0,10.0,91,0.00,,,0.36,,2013-05-19 04:23:00,
2013-05-19 04:33:00,42.0,40.0,-100.00,WSW,239,6.0,10.0,91,0.00,,,0.36,,2013-05-19 04:33:00,
2013-05-19 04:42:00,42.0,40.0,-100.00,WSW,239,6.0,10.0,91,0.00,,,0.36,,2013-05-19 04:42:00,
2013-05-19 04:51:00,42.0,40.0,-100.00,SW,227,7.0,9.0,93,0.01,,,0.37,,2013-05-19 04:51:00,
2013-05-19 05:12:00,42.0,40.0,-100.00,SW,227,7.0,9.0,93,0.01,,,0.37,,2013-05-19 05:12:00,
2013-05-19 05:22:00,42.0,40.0,-100.00,SW,227,7.0,9.0,93,0.01,,,0.37,,2013-05-19 05:22:00,
2013-05-19 05:32:00,42.0,40.0,-100.00,SW,227,7.0,9.0,93,0.01,,,0.37,,2013-05-19 05:32:00,
2013-05-19 05:42:00,42.0,40.0,-100.00,SW,227,7.0,9.0,93,0.01,,,0.37,,2013-05-19 05:42:00,
2013-05-19 05:51:00,41.0,40.0,-100.00,WSW,255,3.0,7.0,95,0.00,,,0.35,,2013-05-19 05:51:00,
2013-05-19 06:12:00,41.0,40.0,-100.00,WSW,255,3.0,7.0,95,0.00,,,0.35,,2013-05-19 06:12:00,
2013-05-19 06:21:00,41.0,40.0,-100.00,WSW,255,3.0,7.0,95,0.00,,,0.35,,2013-05-19 06:21:00,
2013-05-19 06:32:00,41.0,40.0,-100.00,WSW,255,3.0,7.0,95,0.00,,,0.35,,2013-05-19 06:32:00,
2013-05-19 06:42:00,41.0,40.0,-100.00,WSW,255,3.0,7.0,95,0.00,,,0.35,,2013-05-19 06:42:00,
2013-05-19 06:51:00,41.0,39.0,-100.00,SSW,213,1.0,4.0,94,0.00,,,0.31,,2013-05-19 06:51:00,
2013-05-19 07:11:00,41.0,39.0,-100.00,SSW,213,1.0,4.0,94,0.00,,,0.31,,2013-05-19 07:11:00,
2013-05-19 07:21:00,41.0,39.0,-100.00,SSW,213,1.0,4.0,94,0.00,,,0.31,,2013-05-19 07:21:00,
2013-05-19 07:32:00,41.0,39.0,-100.00,SSW,213,1.0,4.0,94,0.00,,,0.31,,2013-05-19 07:32:00,
2013-05-19 07:41:00,41.0,39.0,-100.00,SSW,213,1.0,4.0,94,0.00,,,0.31,,2013-05-19 07:41:00,
2013-05-19 07:51:00,41.0,40.0,-100.00,SSW,197,2.0,4.0,96,0.00,,,0.27,,2013-05-19 07:51:00,
2013-05-19 08:12:00,41.0,40.0,-100.00,SSW,197,2.0,4.0,96,0.00,,,0.27,,2013-05-19 08:12:00,
2013-05-19 08:22:00,41.0,40.0,-100.00,SSW,197,2.0,4.0,96,0.00,,,0.27,,2013-05-19 08:22:00,
2013-05-19 08:32:00,41.0,40.0,-100.00,SSW,197,2.0,4.0,96,0.00,,,0.27,,2013-05-19 08:32:00,
2013-05-19 08:41:00,41.0,40.0,-100.00,SSW,197,2.0,4.0,96,0.00,,,0.27,,2013-05-19 08:41:00,
2013-05-19 08:51:00,41.0,40.0,-100.00,West,265,3.0,7.0,97,0.00,,,0.24,,2013-05-19 08:51:00,
2013-05-19 09:11:00,41.0,40.0,-100.00,West,265,3.0,7.0,97,0.00,,,0.24,,2013-05-19 09:11:00,
2013-05-19 09:21:00,41.0,40.0,-100.00,West,265,3.0,7.0,97,0.00,,,0.24,,2013-05-19 09:21:00,
2013-05-19 09:32:00,41.0,40.0,-100.00,West,265,3.0,7.0,97,0.00,,,0.24,,2013-05-19 09:32:00,
2013-05-19 09:42:00,41.0,40.0,-100.00,West,265,3.0,7.0,97,0.00,,,0.24,,2013-05-19 09:42:00,
2013-05-19 09:51:00,40.0,39.0,-100.00,SSW,197,4.0,7.0,97,0.00,,,0.22,,2013-05-19 09:51:00,
2013-05-19 10:12:00,40.0,39.0,-100.00,SSW,197,4.0,7.0,97,0.00,,,0.22,,2013-05-19 10:12:00,
2013-05-19 10:22:00,40.0,39.0,-100.00,SSW,197,4.0,7.0,97,0.00,,,0.22,,2013-05-19 10:22:00,
2013-05-19 10:32:00,40.0,39.0,-100.00,SSW,197,4.0,7.0,97,0.00,,,0.22,,2013-05-19 10:32:00,
2013-05-19 10:42:00,40.0,39.0,-100.00,SSW,197,4.0,7.0,97,0.00,,,0.22,,2013-05-19 10:42:00,
2013-05-19 10:51:00,40.0,39.0,-100.00,SSW,211,4.0,6.0,96,0.00,,,0.20,,2013-05-19 10:51:00,
2013-05-19 11:11:00,40.0,39.0,-100.00,SSW,211,4.0,6.0,96,0.00,,,0.20,,2013-05-19 11:11:00,
2013-05-19 11:21:00,40.0,39.0,-100.00,SSW,211,4.0,6.0,96,0.00,,,0.20,,2013-05-19 11:21:00,
2013-05-19 11:32:00,40.0,39.0,-100.00,SSW,211,4.0,6.0,96,0.00,,,0.20,,2013-05-19 11:32:00,
2013-05-19 11:42:00,40.0,39.0,-100.00,SSW,211,4.0,6.0,96,0.00,,,0.20,,2013-05-19 11:42:00,
2013-05-19 11:51:00,40.0,39.0,-100.00,WSW,251,3.0,5.0,95,0.00,,,0.18,,2013-05-19 11:51:00,
2013-05-19 12:21:00,40.0,39.0,-100.00,WSW,251,3.0,5.0,95,0.00,,,0.18,,2013-05-19 12:21:00,
2013-05-19 12:31:00,40.0,39.0,-100.00,WSW,251,3.0,5.0,95,0.00,,,0.18,,2013-05-19 12:31:00,
2013-05-19 12:41:00,40.0,39.0,-100.00,WSW,251,3.0,5.0,95,0.00,,,0.18,,2013-05-19 12:41:00,
2013-05-19 12:51:00,40.0,38.0,-100.00,SW,219,3.0,6.0,94,0.01,,,0.18,,2013-05-19 12:51:00,
2013-05-19 13:21:00,40.0,38.0,-100.00,SW,219,3.0,6.0,94,0.01,,,0.18,,2013-05-19 13:21:00,
2013-05-19 13:32:00,40.0,38.0,-100.00,SW,219,3.0,6.0,94,0.01,,,0.18,,2013-05-19 13:32:00,
2013-05-19 13:42:00,40.0,38.0,-100.00,SW,219,3.0,6.0,94,0.01,,,0.18,,2013-05-19 13:42:00,
2013-05-19 13:51:00,41.0,39.0,-100.00,SSW,204,5.0,7.0,93,0.00,,,0.18,,2013-05-19 13:51:00,
2013-05-19 14:21:00,41.0,39.0,-100.00,SSW,204,5.0,7.0,93,0.00,,,0.18,,2013-05-19 14:21:00,
2013-05-19 14:32:00,41.0,39.0,-100.00,SSW,204,5.0,7.0,93,0.00,,,0.18,,2013-05-19 14:32:00,
2013-05-19 14:41:00,41.0,39.0,-100.00,SSW,204,5.0,7.0,93,0.00,,,0.18,,2013-05-19 14:41:00,
2013-05-19 14:51:00,43.0,37.0,-100.00,WNW,289,5.0,10.0,80,0.00,,,0.16,,2013-05-19 14:51:00,
2013-05-19 15:11:00,43.0,37.0,-100.00,WNW,289,5.0,10.0,80,0.00,,,0.16,,2013-05-19 15:11:00,
2013-05-19 15:21:00,43.0,37.0,-100.00,WNW,289,5.0,10.0,80,0.00,,,0.16,,2013-05-19 15:21:00,
2013-05-19 15:33:00,43.0,37.0,-100.00,WNW,289,5.0,10.0,80,0.00,,,0.16,,2013-05-19 15:33:00,
2013-05-19 15:43:00,43.0,37.0,-100.00,WNW,289,5.0,10.0,80,0.00,,,0.16,,2013-05-19 15:43:00,
2013-05-19 15:51:00,45.0,38.0,-100.00,NW,316,4.0,8.0,76,0.00,,,0.16,,2013-05-19 15:51:00,
2013-05-19 16:23:00,45.0,38.0,-100.00,NW,316,4.0,8.0,76,0.00,,,0.16,,2013-05-19 16:23:00,
2013-05-19 16:32:00,45.0,38.0,-100.00,NW,316,4.0,8.0,76,0.00,,,0.16,,2013-05-19 16:32:00,
2013-05-19 16:42:00,45.0,38.0,-100.00,NW,316,4.0,8.0,76,0.00,,,0.16,,2013-05-19 16:42:00,
2013-05-19 16:51:00,45.0,38.0,-100.00,WSW,258,2.0,7.0,75,0.00,,,0.12,,2013-05-19 16:51:00,
2013-05-19 17:12:00,45.0,38.0,-100.00,WSW,258,2.0,7.0,75,0.00,,,0.12,,2013-05-19 17:12:00,
2013-05-19 17:22:00,45.0,38.0,-100.00,WSW,258,2.0,7.0,75,0.00,,,0.12,,2013-05-19 17:22:00,
2013-05-19 17:32:00,45.0,38.0,-100.00,WSW,258,2.0,7.0,75,0.00,,,0.12,,2013-05-19 17:32:00,
2013-05-19 17:42:00,45.0,38.0,-100.00,WSW,258,2.0,7.0,75,0.00,,,0.12,,2013-05-19 17:42:00,
2013-05-19 17:51:00,47.0,38.0,-100.00,WSW,258,7.0,13.0,71,0.00,,,0.05,,2013-05-19 17:51:00,
2013-05-19 18:22:00,47.0,38.0,-100.00,WSW,258,7.0,13.0,71,0.00,,,0.05,,2013-05-19 18:22:00,
2013-05-19 18:32:00,47.0,38.0,-100.00,WSW,258,7.0,13.0,71,0.00,,,0.05,,2013-05-19 18:32:00,
2013-05-19 18:42:00,47.0,38.0,-100.00,WSW,258,7.0,13.0,71,0.00,,,0.05,,2013-05-19 18:42:00,
2013-05-19 18:51:00,48.0,38.0,-100.00,WSW,253,5.0,13.0,68,0.00,,,0.04,,2013-05-19 18:51:00,
2013-05-19 19:11:00,48.0,38.0,-100.00,WSW,253,5.0,13.0,68,0.00,,,0.04,,2013-05-19 19:11:00,
2013-05-19 19:21:00,48.0,38.0,-100.00,WSW,253,5.0,13.0,68,0.00,,,0.04,,2013-05-19 19:21:00,
2013-05-19 19:32:00,48.0,38.0,-100.00,WSW,253,5.0,13.0,68,0.00,,,0.04,,2013-05-19 19:32:00,
2013-05-19 19:42:00,48.0,38.0,-100.00,WSW,253,5.0,13.0,68,0.00,,,0.04,,2013-05-19 19:42:00,
2013-05-19 19:51:00,47.0,38.0,-100.00,WSW,254,7.0,15.0,71,0.03,,,0.07,,2013-05-19 19:51:00,
2013-05-19 20:11:00,47.0,38.0,-100.00,WSW,254,7.0,15.0,71,0.03,,,0.07,,2013-05-19 20:11:00,
2013-05-19 20:21:00,47.0,38.0,-100.00,WSW,254,7.0,15.0,71,0.03,,,0.07,,2013-05-19 20:21:00,
2013-05-19 20:31:00,47.0,38.0,-100.00,WSW,254,7.0,15.0,71,0.03,,,0.07,,2013-05-19 20:31:00,
2013-05-19 20:41:00,47.0,38.0,-100.00,WSW,254,7.0,15.0,71,0.03,,,0.07,,2013-05-19 20:41:00,
2013-05-19 20:51:00,46.0,39.0,-100.00,SW,234,10.0,16.0,76,0.00,,,0.06,,2013-05-19 20:51:00,
2013-05-19 21:11:00,46.0,39.0,-100.00,SW,234,10.0,16.0,76,0.00,,,0.06,,2013-05-19 21:11:00,
2013-05-19 21:22:00,46.0,39.0,-100.00,SW,234,10.0,16.0,76,0.00,,,0.06,,2013-05-19 21:22:00,
2013-05-19 21:32:00,46.0,39.0,-100.00,SW,234,10.0,16.0,76,0.00,,,0.06,,2013-05-19 21:32:00,
2013-05-19 21:43:00,46.0,39.0,-100.00,SW,234,10.0,16.0,76,0.00,,,0.06,,2013-05-19 21:43:00,
2013-05-19 21:51:00,46.0,41.0,-100.00,SW,224,7.0,13.0,84,0.04,,,0.10,,2013-05-19 21:51:00,
2013-05-19 22:12:00,46.0,41.0,-100.00,SW,224,7.0,13.0,84,0.04,,,0.10,,2013-05-19 22:12:00,
2013-05-19 22:23:00,46.0,41.0,-100.00,SW,224,7.0,13.0,84,0.04,,,0.10,,2013-05-19 22:23:00,
2013-05-19 22:33:00,46.0,41.0,-100.00,SW,224,7.0,13.0,84,0.04,,,0.10,,2013-05-19 22:33:00,
2013-05-19 22:42:00,46.0,41.0,-100.00,SW,224,7.0,13.0,84,0.04,,,0.10,,2013-05-19 22:42:00,
2013-05-19 22:51:00,48.0,41.0,-100.00,WSW,238,6.0,9.0,76,0.00,,,0.10,,2013-05-19 22:51:00,
2013-05-19 23:21:00,48.0,41.0,-100.00,WSW,238,6.0,9.0,76,0.00,,,0.10,,2013-05-19 23:21:00,
2013-05-19 23:32:00,48.0,41.0,-100.00,WSW,238,6.0,9.0,76,0.00,,,0.10,,2013-05-19 23:32:00,
2013-05-19 23:42:00,48.0,41.0,-100.00,WSW,238,6.0,9.0,76,0.00,,,0.10,,2013-05-19 23:42:00,
2013-05-19 23:51:00,46.0,41.0,-100.00,WSW,249,3.0,12.0,81,0.00,,,0.10,,2013-05-19 23:51:00,